sensor_id;sensor_type;location;lat;lon;timestamp;temperature;humidity
74617;DHT22;63123;50.906;4.198;2023-05-09T00:01:48;17.50;70.50
74617;DHT22;63123;50.906;4.198;2023-05-09T00:04:14;17.40;70.50
74617;DHT22;63123;50.906;4.198;2023-05-09T00:06:40;17.50;70.60
74617;DHT22;63123;50.906;4.198;2023-05-09T00:09:06;17.40;70.50
74617;DHT22;63123;50.906;4.198;2023-05-09T00:11:32;17.50;70.50
74617;DHT22;63123;50.906;4.198;2023-05-09T00:13:57;17.40;70.50
74617;DHT22;63123;50.906;4.198;2023-05-09T00:16:23;17.50;70.50
74617;DHT22;63123;50.906;4.198;2023-05-09T00:18:50;17.50;70.50
74617;DHT22;63123;50.906;4.198;2023-05-09T00:21:16;17.50;70.50
74617;DHT22;63123;50.906;4.198;2023-05-09T00:23:41;17.40;70.40
74617;DHT22;63123;50.906;4.198;2023-05-09T00:26:08;17.50;70.50
74617;DHT22;63123;50.906;4.198;2023-05-09T00:28:34;17.50;70.50
74617;DHT22;63123;50.906;4.198;2023-05-09T00:30:59;17.40;70.50
74617;DHT22;63123;50.906;4.198;2023-05-09T00:33:25;17.50;70.50
74617;DHT22;63123;50.906;4.198;2023-05-09T00:35:52;17.50;70.50
74617;DHT22;63123;50.906;4.198;2023-05-09T00:38:18;17.40;70.50
74617;DHT22;63123;50.906;4.198;2023-05-09T00:40:43;17.50;70.50
74617;DHT22;63123;50.906;4.198;2023-05-09T00:43:09;17.50;70.50
74617;DHT22;63123;50.906;4.198;2023-05-09T00:45:35;17.50;70.50
74617;DHT22;63123;50.906;4.198;2023-05-09T00:48:01;17.50;70.50
74617;DHT22;63123;50.906;4.198;2023-05-09T00:50:26;17.40;70.40
74617;DHT22;63123;50.906;4.198;2023-05-09T00:52:52;17.50;70.50
74617;DHT22;63123;50.906;4.198;2023-05-09T00:55:18;17.40;70.40
74617;DHT22;63123;50.906;4.198;2023-05-09T00:57:44;17.50;70.50
74617;DHT22;63123;50.906;4.198;2023-05-09T01:00:10;17.40;70.40
74617;DHT22;63123;50.906;4.198;2023-05-09T01:02:46;17.50;70.50
74617;DHT22;63123;50.906;4.198;2023-05-09T01:05:13;17.40;70.40
74617;DHT22;63123;50.906;4.198;2023-05-09T01:10:45;17.40;70.40
74617;DHT22;63123;50.906;4.198;2023-05-09T01:13:22;17.50;70.40
74617;DHT22;63123;50.906;4.198;2023-05-09T01:18:46;17.50;70.40
74617;DHT22;63123;50.906;4.198;2023-05-09T01:21:27;17.50;70.40
74617;DHT22;63123;50.906;4.198;2023-05-09T01:27:56;17.50;70.40
74617;DHT22;63123;50.906;4.198;2023-05-09T01:29:56;17.50;70.40
74617;DHT22;63123;50.906;4.198;2023-05-09T01:32:24;17.50;70.40
74617;DHT22;63123;50.906;4.198;2023-05-09T01:34:54;17.40;70.40
74617;DHT22;63123;50.906;4.198;2023-05-09T01:37:25;17.40;70.40
74617;DHT22;63123;50.906;4.198;2023-05-09T01:39:55;17.50;70.40
74617;DHT22;63123;50.906;4.198;2023-05-09T01:42:24;17.40;70.40
74617;DHT22;63123;50.906;4.198;2023-05-09T01:44:53;17.50;70.40
74617;DHT22;63123;50.906;4.198;2023-05-09T01:47:19;17.50;70.40
74617;DHT22;63123;50.906;4.198;2023-05-09T01:49:46;17.40;70.30
74617;DHT22;63123;50.906;4.198;2023-05-09T01:52:14;17.50;70.40
74617;DHT22;63123;50.906;4.198;2023-05-09T01:54:42;17.50;70.40
74617;DHT22;63123;50.906;4.198;2023-05-09T01:57:10;17.50;70.40
74617;DHT22;63123;50.906;4.198;2023-05-09T01:59:39;17.40;70.30
74617;DHT22;63123;50.906;4.198;2023-05-09T02:02:05;17.40;70.30
74617;DHT22;63123;50.906;4.198;2023-05-09T02:04:32;17.40;70.30
74617;DHT22;63123;50.906;4.198;2023-05-09T02:06:59;17.40;70.30
74617;DHT22;63123;50.906;4.198;2023-05-09T02:09:25;17.50;70.30
74617;DHT22;63123;50.906;4.198;2023-05-09T02:11:51;17.50;70.30
74617;DHT22;63123;50.906;4.198;2023-05-09T02:14:18;17.40;70.30
74617;DHT22;63123;50.906;4.198;2023-05-09T02:16:43;17.50;70.30
74617;DHT22;63123;50.906;4.198;2023-05-09T02:19:09;17.40;70.30
74617;DHT22;63123;50.906;4.198;2023-05-09T02:21:35;17.40;70.30
74617;DHT22;63123;50.906;4.198;2023-05-09T02:24:00;17.50;70.30
74617;DHT22;63123;50.906;4.198;2023-05-09T02:26:27;17.40;70.20
74617;DHT22;63123;50.906;4.198;2023-05-09T02:28:53;17.40;70.20
74617;DHT22;63123;50.906;4.198;2023-05-09T02:31:21;17.40;70.20
74617;DHT22;63123;50.906;4.198;2023-05-09T02:33:48;17.40;70.20
74617;DHT22;63123;50.906;4.198;2023-05-09T02:36:16;17.40;70.30
74617;DHT22;63123;50.906;4.198;2023-05-09T02:38:43;17.40;70.20
74617;DHT22;63123;50.906;4.198;2023-05-09T02:41:13;17.40;70.20
74617;DHT22;63123;50.906;4.198;2023-05-09T02:43:40;17.50;70.20
74617;DHT22;63123;50.906;4.198;2023-05-09T02:46:06;17.50;70.20
74617;DHT22;63123;50.906;4.198;2023-05-09T02:48:32;17.50;70.20
74617;DHT22;63123;50.906;4.198;2023-05-09T02:50:57;17.50;70.20
74617;DHT22;63123;50.906;4.198;2023-05-09T02:53:23;17.50;70.20
74617;DHT22;63123;50.906;4.198;2023-05-09T02:55:49;17.40;70.20
74617;DHT22;63123;50.906;4.198;2023-05-09T02:58:15;17.40;70.20
74617;DHT22;63123;50.906;4.198;2023-05-09T03:00:41;17.50;70.20
74617;DHT22;63123;50.906;4.198;2023-05-09T03:03:07;17.40;70.20
74617;DHT22;63123;50.906;4.198;2023-05-09T03:05:33;17.50;70.20
74617;DHT22;63123;50.906;4.198;2023-05-09T03:07:58;17.40;70.10
74617;DHT22;63123;50.906;4.198;2023-05-09T03:10:24;17.40;70.10
74617;DHT22;63123;50.906;4.198;2023-05-09T03:12:50;17.40;70.10
74617;DHT22;63123;50.906;4.198;2023-05-09T03:15:15;17.40;70.10
74617;DHT22;63123;50.906;4.198;2023-05-09T03:17:41;17.50;70.20
74617;DHT22;63123;50.906;4.198;2023-05-09T03:20:07;17.50;70.20
74617;DHT22;63123;50.906;4.198;2023-05-09T03:22:34;17.50;70.20
74617;DHT22;63123;50.906;4.198;2023-05-09T03:25:00;17.40;70.10
74617;DHT22;63123;50.906;4.198;2023-05-09T03:27:26;17.40;70.10
74617;DHT22;63123;50.906;4.198;2023-05-09T03:29:51;17.50;70.10
74617;DHT22;63123;50.906;4.198;2023-05-09T03:32:17;17.40;70.10
74617;DHT22;63123;50.906;4.198;2023-05-09T03:34:43;17.50;70.70
74617;DHT22;63123;50.906;4.198;2023-05-09T03:37:08;17.40;70.10
74617;DHT22;63123;50.906;4.198;2023-05-09T03:39:34;17.50;70.10
74617;DHT22;63123;50.906;4.198;2023-05-09T03:42:00;17.50;70.10
74617;DHT22;63123;50.906;4.198;2023-05-09T03:44:25;17.40;70.10
74617;DHT22;63123;50.906;4.198;2023-05-09T03:46:51;17.40;70.10
74617;DHT22;63123;50.906;4.198;2023-05-09T03:49:16;17.40;70.10
74617;DHT22;63123;50.906;4.198;2023-05-09T03:51:42;17.50;70.10
74617;DHT22;63123;50.906;4.198;2023-05-09T03:54:08;17.40;70.10
74617;DHT22;63123;50.906;4.198;2023-05-09T03:56:33;17.40;70.70
74617;DHT22;63123;50.906;4.198;2023-05-09T03:58:59;17.50;70.10
74617;DHT22;63123;50.906;4.198;2023-05-09T04:01:25;17.40;70.10
74617;DHT22;63123;50.906;4.198;2023-05-09T04:03:51;17.40;70.10
74617;DHT22;63123;50.906;4.198;2023-05-09T04:06:17;17.50;70.10
74617;DHT22;63123;50.906;4.198;2023-05-09T04:08:43;17.40;70.10
74617;DHT22;63123;50.906;4.198;2023-05-09T04:11:09;17.50;70.10
74617;DHT22;63123;50.906;4.198;2023-05-09T04:13:35;17.50;70.10
74617;DHT22;63123;50.906;4.198;2023-05-09T04:16:01;17.40;70.10
74617;DHT22;63123;50.906;4.198;2023-05-09T04:18:26;17.40;70.10
74617;DHT22;63123;50.906;4.198;2023-05-09T04:20:52;17.40;70.10
74617;DHT22;63123;50.906;4.198;2023-05-09T04:23:18;17.50;70.10
74617;DHT22;63123;50.906;4.198;2023-05-09T04:25:43;17.50;70.10
74617;DHT22;63123;50.906;4.198;2023-05-09T04:28:09;17.50;70.10
74617;DHT22;63123;50.906;4.198;2023-05-09T04:30:35;17.50;70.10
74617;DHT22;63123;50.906;4.198;2023-05-09T04:33:01;17.50;70.70
74617;DHT22;63123;50.906;4.198;2023-05-09T04:35:27;17.40;70.10
74617;DHT22;63123;50.906;4.198;2023-05-09T04:37:52;17.40;70.20
74617;DHT22;63123;50.906;4.198;2023-05-09T04:40:18;17.50;70.10
74617;DHT22;63123;50.906;4.198;2023-05-09T04:42:43;17.50;70.10
74617;DHT22;63123;50.906;4.198;2023-05-09T04:45:09;17.40;70.10
74617;DHT22;63123;50.906;4.198;2023-05-09T04:47:36;17.40;70.10
74617;DHT22;63123;50.906;4.198;2023-05-09T04:50:02;17.40;70.10
74617;DHT22;63123;50.906;4.198;2023-05-09T04:52:28;17.50;70.10
74617;DHT22;63123;50.906;4.198;2023-05-09T04:54:54;17.50;70.10
74617;DHT22;63123;50.906;4.198;2023-05-09T04:57:20;17.40;70.10
74617;DHT22;63123;50.906;4.198;2023-05-09T04:59:46;17.40;70.10
74617;DHT22;63123;50.906;4.198;2023-05-09T05:02:11;17.40;70.10
74617;DHT22;63123;50.906;4.198;2023-05-09T05:04:37;17.40;70.10
74617;DHT22;63123;50.906;4.198;2023-05-09T05:07:03;17.40;70.10
74617;DHT22;63123;50.906;4.198;2023-05-09T05:09:29;17.50;70.20
74617;DHT22;63123;50.906;4.198;2023-05-09T05:11:55;17.40;70.10
74617;DHT22;63123;50.906;4.198;2023-05-09T05:14:20;17.50;70.20
74617;DHT22;63123;50.906;4.198;2023-05-09T05:16:46;17.50;70.20
74617;DHT22;63123;50.906;4.198;2023-05-09T05:19:12;17.40;70.10
74617;DHT22;63123;50.906;4.198;2023-05-09T05:21:37;17.50;70.20
74617;DHT22;63123;50.906;4.198;2023-05-09T05:24:03;17.50;70.20
74617;DHT22;63123;50.906;4.198;2023-05-09T05:26:29;17.40;70.10
74617;DHT22;63123;50.906;4.198;2023-05-09T05:28:55;17.50;70.20
74617;DHT22;63123;50.906;4.198;2023-05-09T05:31:21;17.50;70.20
74617;DHT22;63123;50.906;4.198;2023-05-09T05:33:47;17.50;70.30
74617;DHT22;63123;50.906;4.198;2023-05-09T05:36:13;17.50;70.30
74617;DHT22;63123;50.906;4.198;2023-05-09T05:38:38;17.50;70.30
74617;DHT22;63123;50.906;4.198;2023-05-09T05:41:04;17.50;70.30
74617;DHT22;63123;50.906;4.198;2023-05-09T05:43:30;17.40;70.30
74617;DHT22;63123;50.906;4.198;2023-05-09T05:45:55;17.50;70.30
74617;DHT22;63123;50.906;4.198;2023-05-09T05:48:21;17.50;70.30
74617;DHT22;63123;50.906;4.198;2023-05-09T05:50:47;17.50;70.30
74617;DHT22;63123;50.906;4.198;2023-05-09T05:53:12;17.50;70.30
74617;DHT22;63123;50.906;4.198;2023-05-09T05:55:38;17.50;70.40
74617;DHT22;63123;50.906;4.198;2023-05-09T05:58:04;17.50;70.40
74617;DHT22;63123;50.906;4.198;2023-05-09T06:00:29;17.50;70.40
74617;DHT22;63123;50.906;4.198;2023-05-09T06:02:55;17.50;70.40
74617;DHT22;63123;50.906;4.198;2023-05-09T06:05:20;17.50;70.40
74617;DHT22;63123;50.906;4.198;2023-05-09T06:07:46;17.50;70.40
74617;DHT22;63123;50.906;4.198;2023-05-09T06:10:12;17.50;70.40
74617;DHT22;63123;50.906;4.198;2023-05-09T06:12:40;17.50;70.40
74617;DHT22;63123;50.906;4.198;2023-05-09T06:15:06;17.50;70.40
74617;DHT22;63123;50.906;4.198;2023-05-09T06:17:32;17.50;70.40
74617;DHT22;63123;50.906;4.198;2023-05-09T06:19:58;17.50;71.00
74617;DHT22;63123;50.906;4.198;2023-05-09T06:22:23;17.50;70.40
74617;DHT22;63123;50.906;4.198;2023-05-09T06:24:49;17.50;70.40
74617;DHT22;63123;50.906;4.198;2023-05-09T06:27:15;17.40;70.30
74617;DHT22;63123;50.906;4.198;2023-05-09T06:29:41;17.50;70.40
74617;DHT22;63123;50.906;4.198;2023-05-09T06:32:06;17.50;70.40
74617;DHT22;63123;50.906;4.198;2023-05-09T06:34:32;17.50;70.40
74617;DHT22;63123;50.906;4.198;2023-05-09T06:36:57;17.50;70.40
74617;DHT22;63123;50.906;4.198;2023-05-09T06:39:23;17.50;70.40
74617;DHT22;63123;50.906;4.198;2023-05-09T06:41:49;17.40;70.30
74617;DHT22;63123;50.906;4.198;2023-05-09T06:44:14;17.50;70.40
74617;DHT22;63123;50.906;4.198;2023-05-09T06:46:40;17.50;70.40
74617;DHT22;63123;50.906;4.198;2023-05-09T06:49:05;17.50;70.40
74617;DHT22;63123;50.906;4.198;2023-05-09T06:51:31;17.50;70.40
74617;DHT22;63123;50.906;4.198;2023-05-09T06:53:57;17.50;70.40
74617;DHT22;63123;50.906;4.198;2023-05-09T06:56:23;17.50;70.40
74617;DHT22;63123;50.906;4.198;2023-05-09T06:58:49;17.50;70.40
74617;DHT22;63123;50.906;4.198;2023-05-09T07:01:15;17.50;70.40
74617;DHT22;63123;50.906;4.198;2023-05-09T07:03:42;17.50;70.40
74617;DHT22;63123;50.906;4.198;2023-05-09T07:06:07;17.50;70.30
74617;DHT22;63123;50.906;4.198;2023-05-09T07:08:33;17.50;70.40
74617;DHT22;63123;50.906;4.198;2023-05-09T07:10:59;17.50;70.40
74617;DHT22;63123;50.906;4.198;2023-05-09T07:13:24;17.50;70.40
74617;DHT22;63123;50.906;4.198;2023-05-09T07:15:50;17.50;70.40
74617;DHT22;63123;50.906;4.198;2023-05-09T07:18:16;17.50;70.40
74617;DHT22;63123;50.906;4.198;2023-05-09T07:20:41;17.50;70.40
74617;DHT22;63123;50.906;4.198;2023-05-09T07:23:07;17.50;70.40
74617;DHT22;63123;50.906;4.198;2023-05-09T07:25:32;17.50;70.40
74617;DHT22;63123;50.906;4.198;2023-05-09T07:27:58;17.50;70.40
74617;DHT22;63123;50.906;4.198;2023-05-09T07:30:24;17.50;70.40
74617;DHT22;63123;50.906;4.198;2023-05-09T07:32:49;17.50;70.40
74617;DHT22;63123;50.906;4.198;2023-05-09T07:35:16;17.50;70.30
74617;DHT22;63123;50.906;4.198;2023-05-09T07:37:42;17.50;70.30
74617;DHT22;63123;50.906;4.198;2023-05-09T07:40:08;17.50;70.40
74617;DHT22;63123;50.906;4.198;2023-05-09T07:42:34;17.50;70.30
74617;DHT22;63123;50.906;4.198;2023-05-09T07:44:59;17.50;70.40
74617;DHT22;63123;50.906;4.198;2023-05-09T07:47:25;17.50;71.00
74617;DHT22;63123;50.906;4.198;2023-05-09T07:49:51;17.50;70.30
74617;DHT22;63123;50.906;4.198;2023-05-09T07:52:17;17.50;70.30
74617;DHT22;63123;50.906;4.198;2023-05-09T07:54:43;17.50;70.30
74617;DHT22;63123;50.906;4.198;2023-05-09T07:57:09;17.50;70.40
74617;DHT22;63123;50.906;4.198;2023-05-09T07:59:35;17.50;70.40
74617;DHT22;63123;50.906;4.198;2023-05-09T08:02:00;17.50;70.40
74617;DHT22;63123;50.906;4.198;2023-05-09T08:04:26;17.50;70.40
74617;DHT22;63123;50.906;4.198;2023-05-09T08:06:52;17.50;70.40
74617;DHT22;63123;50.906;4.198;2023-05-09T08:09:18;17.50;70.40
74617;DHT22;63123;50.906;4.198;2023-05-09T08:11:43;17.50;70.40
74617;DHT22;63123;50.906;4.198;2023-05-09T08:14:09;17.50;70.50
74617;DHT22;63123;50.906;4.198;2023-05-09T08:16:35;17.60;70.50
74617;DHT22;63123;50.906;4.198;2023-05-09T08:19:01;17.60;70.50
74617;DHT22;63123;50.906;4.198;2023-05-09T08:21:27;17.60;70.60
74617;DHT22;63123;50.906;4.198;2023-05-09T08:23:52;17.50;70.50
74617;DHT22;63123;50.906;4.198;2023-05-09T08:26:18;17.60;70.60
74617;DHT22;63123;50.906;4.198;2023-05-09T08:28:44;17.50;70.60
74617;DHT22;63123;50.906;4.198;2023-05-09T08:31:09;17.50;70.50
74617;DHT22;63123;50.906;4.198;2023-05-09T08:33:35;17.60;70.70
74617;DHT22;63123;50.906;4.198;2023-05-09T08:36:01;17.50;70.70
74617;DHT22;63123;50.906;4.198;2023-05-09T08:38:27;17.50;70.60
74617;DHT22;63123;50.906;4.198;2023-05-09T08:40:59;17.50;70.70
74617;DHT22;63123;50.906;4.198;2023-05-09T08:43:27;17.50;70.70
74617;DHT22;63123;50.906;4.198;2023-05-09T08:45:57;17.60;70.80
74617;DHT22;63123;50.906;4.198;2023-05-09T08:48:24;17.50;71.30
74617;DHT22;63123;50.906;4.198;2023-05-09T08:50:52;17.60;70.80
74617;DHT22;63123;50.906;4.198;2023-05-09T08:53:19;17.50;71.30
74617;DHT22;63123;50.906;4.198;2023-05-09T08:55:46;17.50;70.80
74617;DHT22;63123;50.906;4.198;2023-05-09T08:58:12;17.50;70.70
74617;DHT22;63123;50.906;4.198;2023-05-09T09:00:38;17.50;70.70
74617;DHT22;63123;50.906;4.198;2023-05-09T09:03:06;17.60;70.90
74617;DHT22;63123;50.906;4.198;2023-05-09T09:05:34;17.60;70.90
74617;DHT22;63123;50.906;4.198;2023-05-09T09:08:01;17.50;70.80
74617;DHT22;63123;50.906;4.198;2023-05-09T09:10:30;17.50;70.80
74617;DHT22;63123;50.906;4.198;2023-05-09T09:12:57;17.60;70.90
74617;DHT22;63123;50.906;4.198;2023-05-09T09:15:29;17.60;70.90
74617;DHT22;63123;50.906;4.198;2023-05-09T09:17:57;17.50;70.80
74617;DHT22;63123;50.906;4.198;2023-05-09T09:20:25;17.50;70.90
74617;DHT22;63123;50.906;4.198;2023-05-09T09:22:56;17.50;70.90
74617;DHT22;63123;50.906;4.198;2023-05-09T09:25:23;17.50;70.90
74617;DHT22;63123;50.906;4.198;2023-05-09T09:27:48;17.50;70.90
74617;DHT22;63123;50.906;4.198;2023-05-09T09:30:14;17.60;71.00
74617;DHT22;63123;50.906;4.198;2023-05-09T09:32:40;17.60;71.00
74617;DHT22;63123;50.906;4.198;2023-05-09T09:35:08;17.50;70.90
74617;DHT22;63123;50.906;4.198;2023-05-09T09:37:38;17.50;70.80
74617;DHT22;63123;50.906;4.198;2023-05-09T09:40:11;17.50;71.00
74617;DHT22;63123;50.906;4.198;2023-05-09T09:42:44;17.50;70.90
74617;DHT22;63123;50.906;4.198;2023-05-09T09:45:11;17.50;70.90
74617;DHT22;63123;50.906;4.198;2023-05-09T09:47:38;17.60;71.00
74617;DHT22;63123;50.906;4.198;2023-05-09T09:50:15;17.50;71.00
74617;DHT22;63123;50.906;4.198;2023-05-09T09:52:51;17.60;71.00
74617;DHT22;63123;50.906;4.198;2023-05-09T09:55:18;17.60;71.00
74617;DHT22;63123;50.906;4.198;2023-05-09T09:57:44;17.50;70.90
74617;DHT22;63123;50.906;4.198;2023-05-09T10:00:18;17.50;71.00
74617;DHT22;63123;50.906;4.198;2023-05-09T10:02:51;17.60;71.00
74617;DHT22;63123;50.906;4.198;2023-05-09T10:05:28;17.60;71.00
74617;DHT22;63123;50.906;4.198;2023-05-09T10:07:58;17.60;71.00
74617;DHT22;63123;50.906;4.198;2023-05-09T10:10:32;17.50;71.00
74617;DHT22;63123;50.906;4.198;2023-05-09T10:13:01;17.60;71.10
74617;DHT22;63123;50.906;4.198;2023-05-09T10:15:28;17.60;71.00
74617;DHT22;63123;50.906;4.198;2023-05-09T10:17:56;17.60;71.00
74617;DHT22;63123;50.906;4.198;2023-05-09T10:20:23;17.50;71.00
74617;DHT22;63123;50.906;4.198;2023-05-09T10:22:53;17.60;71.10
74617;DHT22;63123;50.906;4.198;2023-05-09T10:25:21;17.50;71.00
74617;DHT22;63123;50.906;4.198;2023-05-09T10:27:48;17.60;71.20
74617;DHT22;63123;50.906;4.198;2023-05-09T10:30:35;17.60;71.10
74617;DHT22;63123;50.906;4.198;2023-05-09T10:33:08;17.50;71.10
74617;DHT22;63123;50.906;4.198;2023-05-09T10:35:38;17.50;70.90
74617;DHT22;63123;50.906;4.198;2023-05-09T10:38:06;17.60;71.00
74617;DHT22;63123;50.906;4.198;2023-05-09T10:40:33;17.60;71.00
74617;DHT22;63123;50.906;4.198;2023-05-09T10:42:59;17.50;70.90
74617;DHT22;63123;50.906;4.198;2023-05-09T10:45:25;17.60;71.00
74617;DHT22;63123;50.906;4.198;2023-05-09T10:47:52;17.50;70.90
74617;DHT22;63123;50.906;4.198;2023-05-09T10:50:19;17.60;71.00
74617;DHT22;63123;50.906;4.198;2023-05-09T10:53:05;17.60;71.00
74617;DHT22;63123;50.906;4.198;2023-05-09T10:55:58;17.60;71.10
74617;DHT22;63123;50.906;4.198;2023-05-09T10:58:32;17.60;71.40
74617;DHT22;63123;50.906;4.198;2023-05-09T11:01:02;17.60;71.30
74617;DHT22;63123;50.906;4.198;2023-05-09T11:03:52;17.60;71.40
74617;DHT22;63123;50.906;4.198;2023-05-09T11:09:28;17.70;71.30
74617;DHT22;63123;50.906;4.198;2023-05-09T11:12:06;17.70;71.40
74617;DHT22;63123;50.906;4.198;2023-05-09T11:14:40;17.70;71.40
74617;DHT22;63123;50.906;4.198;2023-05-09T11:22:30;17.70;71.40
74617;DHT22;63123;50.906;4.198;2023-05-09T11:25:13;17.70;71.30
74617;DHT22;63123;50.906;4.198;2023-05-09T11:27:42;17.70;71.30
74617;DHT22;63123;50.906;4.198;2023-05-09T11:30:13;17.70;71.30
74617;DHT22;63123;50.906;4.198;2023-05-09T11:33:00;17.70;71.40
74617;DHT22;63123;50.906;4.198;2023-05-09T11:35:26;17.80;71.50
74617;DHT22;63123;50.906;4.198;2023-05-09T11:40:25;17.70;71.40
74617;DHT22;63123;50.906;4.198;2023-05-09T11:42:53;17.70;71.20
74617;DHT22;63123;50.906;4.198;2023-05-09T11:45:20;17.80;71.50
74617;DHT22;63123;50.906;4.198;2023-05-09T11:47:47;17.70;71.40
74617;DHT22;63123;50.906;4.198;2023-05-09T11:50:14;17.70;71.50
74617;DHT22;63123;50.906;4.198;2023-05-09T11:52:40;17.70;71.40
74617;DHT22;63123;50.906;4.198;2023-05-09T11:55:11;17.70;71.40
74617;DHT22;63123;50.906;4.198;2023-05-09T12:00:10;17.70;71.30
74617;DHT22;63123;50.906;4.198;2023-05-09T12:02:38;17.70;71.40
74617;DHT22;63123;50.906;4.198;2023-05-09T12:05:11;17.70;71.50
74617;DHT22;63123;50.906;4.198;2023-05-09T12:07:38;17.70;71.50
74617;DHT22;63123;50.906;4.198;2023-05-09T12:10:12;17.70;71.50
74617;DHT22;63123;50.906;4.198;2023-05-09T12:12:43;17.70;71.50
74617;DHT22;63123;50.906;4.198;2023-05-09T12:15:09;17.70;71.30
74617;DHT22;63123;50.906;4.198;2023-05-09T12:17:35;17.70;71.50
74617;DHT22;63123;50.906;4.198;2023-05-09T12:20:02;17.70;71.50
74617;DHT22;63123;50.906;4.198;2023-05-09T12:22:33;17.70;71.50
74617;DHT22;63123;50.906;4.198;2023-05-09T12:25:00;17.70;71.40
74617;DHT22;63123;50.906;4.198;2023-05-09T12:27:27;17.70;71.50
74617;DHT22;63123;50.906;4.198;2023-05-09T12:29:53;17.70;71.40
74617;DHT22;63123;50.906;4.198;2023-05-09T12:32:19;17.70;71.50
74617;DHT22;63123;50.906;4.198;2023-05-09T12:34:45;17.70;71.60
74617;DHT22;63123;50.906;4.198;2023-05-09T12:37:17;17.70;71.50
74617;DHT22;63123;50.906;4.198;2023-05-09T12:40:07;17.70;71.40
74617;DHT22;63123;50.906;4.198;2023-05-09T12:42:35;17.70;71.50
74617;DHT22;63123;50.906;4.198;2023-05-09T12:45:02;17.70;71.50
74617;DHT22;63123;50.906;4.198;2023-05-09T12:47:29;17.70;71.50
74617;DHT22;63123;50.906;4.198;2023-05-09T12:50:03;17.70;71.60
74617;DHT22;63123;50.906;4.198;2023-05-09T12:52:37;17.70;71.50
74617;DHT22;63123;50.906;4.198;2023-05-09T12:55:05;17.70;71.50
74617;DHT22;63123;50.906;4.198;2023-05-09T12:57:31;17.70;71.50
74617;DHT22;63123;50.906;4.198;2023-05-09T12:59:58;17.80;71.60
74617;DHT22;63123;50.906;4.198;2023-05-09T13:02:33;17.70;71.60
74617;DHT22;63123;50.906;4.198;2023-05-09T13:05:09;17.70;71.50
74617;DHT22;63123;50.906;4.198;2023-05-09T13:10:10;17.70;71.50
74617;DHT22;63123;50.906;4.198;2023-05-09T13:12:37;17.70;71.50
74617;DHT22;63123;50.906;4.198;2023-05-09T13:15:04;17.80;71.50
74617;DHT22;63123;50.906;4.198;2023-05-09T13:17:29;17.80;71.60
74617;DHT22;63123;50.906;4.198;2023-05-09T13:19:55;17.80;71.50
74617;DHT22;63123;50.906;4.198;2023-05-09T13:22:21;17.70;71.50
74617;DHT22;63123;50.906;4.198;2023-05-09T13:24:46;17.80;71.50
74617;DHT22;63123;50.906;4.198;2023-05-09T13:27:12;17.80;71.50
74617;DHT22;63123;50.906;4.198;2023-05-09T13:29:37;17.70;71.50
74617;DHT22;63123;50.906;4.198;2023-05-09T13:32:03;17.70;71.60
74617;DHT22;63123;50.906;4.198;2023-05-09T13:34:29;17.70;71.50
74617;DHT22;63123;50.906;4.198;2023-05-09T13:36:54;17.80;71.60
74617;DHT22;63123;50.906;4.198;2023-05-09T13:39:20;17.70;71.40
74617;DHT22;63123;50.906;4.198;2023-05-09T13:41:46;17.70;71.50
74617;DHT22;63123;50.906;4.198;2023-05-09T13:44:13;17.70;71.40
74617;DHT22;63123;50.906;4.198;2023-05-09T13:46:39;17.70;71.40
74617;DHT22;63123;50.906;4.198;2023-05-09T13:49:04;17.70;71.40
74617;DHT22;63123;50.906;4.198;2023-05-09T13:51:30;17.70;71.30
74617;DHT22;63123;50.906;4.198;2023-05-09T13:53:56;17.70;71.40
74617;DHT22;63123;50.906;4.198;2023-05-09T13:56:23;17.70;71.40
74617;DHT22;63123;50.906;4.198;2023-05-09T13:58:49;17.70;71.40
74617;DHT22;63123;50.906;4.198;2023-05-09T14:01:15;17.70;71.40
74617;DHT22;63123;50.906;4.198;2023-05-09T14:03:40;17.70;71.40
74617;DHT22;63123;50.906;4.198;2023-05-09T14:06:06;17.70;71.40
74617;DHT22;63123;50.906;4.198;2023-05-09T14:08:33;17.70;71.40
74617;DHT22;63123;50.906;4.198;2023-05-09T14:11:00;17.70;71.40
74617;DHT22;63123;50.906;4.198;2023-05-09T14:13:25;17.70;71.40
74617;DHT22;63123;50.906;4.198;2023-05-09T14:15:51;17.70;71.40
74617;DHT22;63123;50.906;4.198;2023-05-09T14:18:17;17.70;71.50
74617;DHT22;63123;50.906;4.198;2023-05-09T14:20:42;17.70;71.40
74617;DHT22;63123;50.906;4.198;2023-05-09T14:23:08;17.70;71.40
74617;DHT22;63123;50.906;4.198;2023-05-09T14:25:34;17.70;71.40
74617;DHT22;63123;50.906;4.198;2023-05-09T14:27:59;17.60;71.30
74617;DHT22;63123;50.906;4.198;2023-05-09T14:30:25;17.70;71.40
74617;DHT22;63123;50.906;4.198;2023-05-09T14:32:51;17.70;71.40
74617;DHT22;63123;50.906;4.198;2023-05-09T14:35:17;17.60;71.40
74617;DHT22;63123;50.906;4.198;2023-05-09T14:37:42;17.60;71.40
74617;DHT22;63123;50.906;4.198;2023-05-09T14:40:08;17.60;71.40
74617;DHT22;63123;50.906;4.198;2023-05-09T14:42:34;17.60;71.40
74617;DHT22;63123;50.906;4.198;2023-05-09T14:45:01;17.60;71.40
74617;DHT22;63123;50.906;4.198;2023-05-09T14:47:26;17.70;71.40
74617;DHT22;63123;50.906;4.198;2023-05-09T14:49:52;17.60;71.30
74617;DHT22;63123;50.906;4.198;2023-05-09T14:52:18;17.60;71.40
74617;DHT22;63123;50.906;4.198;2023-05-09T14:54:43;17.60;71.40
74617;DHT22;63123;50.906;4.198;2023-05-09T14:57:09;17.70;71.40
74617;DHT22;63123;50.906;4.198;2023-05-09T14:59:35;17.70;71.40
74617;DHT22;63123;50.906;4.198;2023-05-09T15:02:00;17.60;71.40
74617;DHT22;63123;50.906;4.198;2023-05-09T15:04:26;17.70;71.40
74617;DHT22;63123;50.906;4.198;2023-05-09T15:06:55;17.60;71.40
74617;DHT22;63123;50.906;4.198;2023-05-09T15:09:21;17.60;71.50
74617;DHT22;63123;50.906;4.198;2023-05-09T15:11:47;17.70;71.50
74617;DHT22;63123;50.906;4.198;2023-05-09T15:14:13;17.70;71.50
74617;DHT22;63123;50.906;4.198;2023-05-09T15:16:39;17.70;71.50
74617;DHT22;63123;50.906;4.198;2023-05-09T15:19:04;17.60;71.50
74617;DHT22;63123;50.906;4.198;2023-05-09T15:21:30;17.70;71.50
74617;DHT22;63123;50.906;4.198;2023-05-09T15:23:57;17.70;71.50
74617;DHT22;63123;50.906;4.198;2023-05-09T15:26:22;17.60;71.50
74617;DHT22;63123;50.906;4.198;2023-05-09T15:28:48;17.60;71.50
74617;DHT22;63123;50.906;4.198;2023-05-09T15:31:14;17.60;71.50
74617;DHT22;63123;50.906;4.198;2023-05-09T15:33:40;17.60;71.50
74617;DHT22;63123;50.906;4.198;2023-05-09T15:36:05;17.60;72.10
74617;DHT22;63123;50.906;4.198;2023-05-09T15:38:32;17.60;71.50
74617;DHT22;63123;50.906;4.198;2023-05-09T15:40:58;17.60;71.50
74617;DHT22;63123;50.906;4.198;2023-05-09T15:43:24;17.60;71.50
74617;DHT22;63123;50.906;4.198;2023-05-09T15:45:50;17.60;71.50
74617;DHT22;63123;50.906;4.198;2023-05-09T15:48:16;17.60;71.50
74617;DHT22;63123;50.906;4.198;2023-05-09T15:50:42;17.60;71.50
74617;DHT22;63123;50.906;4.198;2023-05-09T15:53:08;17.60;71.60
74617;DHT22;63123;50.906;4.198;2023-05-09T15:55:34;17.60;71.50